Terminal Aerodrome Forecast
Issued by NWS

Home | Current Version | Previous Version | Graphics & Text | Print | Product List | Glossary On
Versions: 1 2 3 4 5 6 7 8 9 10 11 12 13
000
FTUS45 KGGW 240528
TAFSDY
TAF
KSDY 240528Z 2406/2506 16007KT P6SM SCT140
     FM241000 17007KT P6SM SCT180 WS020/18040KT
     FM242200 26020G33KT P6SM -SHRA VCTS BKN080CB
     FM250100 30009KT P6SM -SHRA BKN070=

USA.gov is the U.S. government's official web portal to all federal, state and local government web resources and services.